sensor_id;sensor_type;location;lat;lon;timestamp;pressure;altitude;pressure_sealevel;temperature;humidity
42247;BME280;27913;42.722;23.268;2024-01-30T00:01:26;96991.44;;;0.21;75.39
42247;BME280;27913;42.722;23.268;2024-01-30T00:03:51;96985.25;;;0.23;75.50
42247;BME280;27913;42.722;23.268;2024-01-30T00:06:20;96788.94;;;-1.12;75.40
42247;BME280;27913;42.722;23.268;2024-01-30T00:08:46;96940.19;;;-0.27;76.14
42247;BME280;27913;42.722;23.268;2024-01-30T00:11:14;97009.69;;;-0.02;76.63
42247;BME280;27913;42.722;23.268;2024-01-30T00:13:40;96753.78;;;-1.34;76.60
42247;BME280;27913;42.722;23.268;2024-01-30T00:16:06;96877.88;;;-0.79;77.03
42247;BME280;27913;42.722;23.268;2024-01-30T00:18:32;96419.81;;;-3.38;77.20
42247;BME280;27913;42.722;23.268;2024-01-30T00:20:57;96989.00;;;-0.02;76.37
42247;BME280;27913;42.722;23.268;2024-01-30T00:23:23;96987.19;;;0.01;76.47
42247;BME280;27913;42.722;23.268;2024-01-30T00:25:50;96693.13;;;-1.83;76.28
42247;BME280;27913;42.722;23.268;2024-01-30T00:28:15;96986.31;;;0.02;76.62
42247;BME280;27913;42.722;23.268;2024-01-30T00:30:41;96989.09;;;-0.03;76.86
42247;BME280;27913;42.722;23.268;2024-01-30T00:33:08;96805.91;;;-1.25;76.30
42247;BME280;27913;42.722;23.268;2024-01-30T00:35:33;96991.56;;;0.00;76.44
42247;BME280;27913;42.722;23.268;2024-01-30T00:37:59;96435.59;;;-3.25;76.07
42247;BME280;27913;42.722;23.268;2024-01-30T00:40:24;96975.66;;;0.08;75.91
42247;BME280;27913;42.722;23.268;2024-01-30T00:42:50;96719.72;;;-1.42;75.35
42247;BME280;27913;42.722;23.268;2024-01-30T00:45:16;96994.31;;;0.15;75.58
42247;BME280;27913;42.722;23.268;2024-01-30T00:47:42;96960.97;;;0.08;75.42
42247;BME280;27913;42.722;23.268;2024-01-30T00:50:08;96556.41;;;-2.40;75.32
42247;BME280;27913;42.722;23.268;2024-01-30T00:52:34;96627.59;;;-1.98;75.13
42247;BME280;27913;42.722;23.268;2024-01-30T00:55:01;96993.00;;;0.06;76.12
42247;BME280;27913;42.722;23.268;2024-01-30T00:57:28;96919.22;;;-0.40;76.28
42247;BME280;27913;42.722;23.268;2024-01-30T00:59:53;96786.50;;;-1.34;76.46
42247;BME280;27913;42.722;23.268;2024-01-30T01:04:54;96553.84;;;-3.01;76.86
42247;BME280;27913;42.722;23.268;2024-01-30T01:07:20;96372.47;;;-4.18;77.05
42247;BME280;27913;42.722;23.268;2024-01-30T01:09:45;96987.63;;;-0.67;77.67
42247;BME280;27913;42.722;23.268;2024-01-30T01:12:11;96993.41;;;-0.81;78.59
42247;BME280;27913;42.722;23.268;2024-01-30T01:14:36;96990.50;;;-0.94;79.25
42247;BME280;27913;42.722;23.268;2024-01-30T01:17:02;96506.81;;;-3.92;79.36
42247;BME280;27913;42.722;23.268;2024-01-30T01:19:28;96739.13;;;-2.77;79.58
42247;BME280;27913;42.722;23.268;2024-01-30T01:21:53;96997.34;;;-1.35;79.99
42247;BME280;27913;42.722;23.268;2024-01-30T01:24:19;96982.72;;;-1.34;80.53
42247;BME280;27913;42.722;23.268;2024-01-30T01:26:44;96984.50;;;-1.36;80.79
42247;BME280;27913;42.722;23.268;2024-01-30T01:29:10;96435.06;;;-4.65;80.47
42247;BME280;27913;42.722;23.268;2024-01-30T01:31:38;96965.53;;;-1.35;80.75
42247;BME280;27913;42.722;23.268;2024-01-30T01:34:11;96765.97;;;-2.61;80.49
42247;BME280;27913;42.722;23.268;2024-01-30T01:36:37;96757.34;;;-2.60;80.26
42247;BME280;27913;42.722;23.268;2024-01-30T01:39:02;96662.19;;;-3.29;79.96
42247;BME280;27913;42.722;23.268;2024-01-30T01:41:34;96479.69;;;-4.21;79.66
42247;BME280;27913;42.722;23.268;2024-01-30T01:44:00;96974.63;;;-1.05;79.79
42247;BME280;27913;42.722;23.268;2024-01-30T01:46:27;96996.59;;;-0.95;79.19
42247;BME280;27913;42.722;23.268;2024-01-30T01:48:54;96518.50;;;-3.60;78.72
42247;BME280;27913;42.722;23.268;2024-01-30T01:51:20;96555.13;;;-3.33;78.36
42247;BME280;27913;42.722;23.268;2024-01-30T01:53:47;96970.34;;;-0.86;78.54
42247;BME280;27913;42.722;23.268;2024-01-30T01:56:12;96436.41;;;-3.88;77.82
42247;BME280;27913;42.722;23.268;2024-01-30T01:58:38;96776.25;;;-1.76;77.62
42247;BME280;27913;42.722;23.268;2024-01-30T02:01:04;96478.16;;;-3.60;77.46
42247;BME280;27913;42.722;23.268;2024-01-30T02:03:30;96881.59;;;-1.25;77.60
42247;BME280;27913;42.722;23.268;2024-01-30T02:05:56;96996.84;;;-0.42;77.40
42247;BME280;27913;42.722;23.268;2024-01-30T02:08:26;96608.75;;;-2.59;77.37
42247;BME280;27913;42.722;23.268;2024-01-30T02:10:51;97005.06;;;-0.32;77.29
42247;BME280;27913;42.722;23.268;2024-01-30T02:13:17;97003.78;;;-0.23;76.80
42247;BME280;27913;42.722;23.268;2024-01-30T02:15:43;96580.56;;;-2.83;76.53
42247;BME280;27913;42.722;23.268;2024-01-30T02:18:08;96415.53;;;-3.59;76.44
42247;BME280;27913;42.722;23.268;2024-01-30T02:20:35;96441.50;;;-3.44;75.97
42247;BME280;27913;42.722;23.268;2024-01-30T02:23:02;96992.59;;;-0.04;75.95
42247;BME280;27913;42.722;23.268;2024-01-30T02:25:33;97001.81;;;0.02;75.55
42247;BME280;27913;42.722;23.268;2024-01-30T02:27:58;97003.56;;;0.01;75.28
42247;BME280;27913;42.722;23.268;2024-01-30T02:30:24;96995.56;;;0.06;74.92
42247;BME280;27913;42.722;23.268;2024-01-30T02:32:49;97008.31;;;0.10;75.28
42247;BME280;27913;42.722;23.268;2024-01-30T02:35:15;96984.75;;;-0.03;74.62
42247;BME280;27913;42.722;23.268;2024-01-30T02:37:40;96454.13;;;-3.38;74.52
42247;BME280;27913;42.722;23.268;2024-01-30T02:40:07;96481.78;;;-3.22;75.05
42247;BME280;27913;42.722;23.268;2024-01-30T02:42:32;96785.44;;;-1.30;74.69
42247;BME280;27913;42.722;23.268;2024-01-30T02:44:58;96976.53;;;-0.11;74.57
42247;BME280;27913;42.722;23.268;2024-01-30T02:47:23;96873.78;;;-0.83;74.63
42247;BME280;27913;42.722;23.268;2024-01-30T02:49:49;96560.97;;;-2.67;73.82
42247;BME280;27913;42.722;23.268;2024-01-30T02:52:14;96993.78;;;-0.11;73.87
42247;BME280;27913;42.722;23.268;2024-01-30T02:54:40;96976.53;;;-0.11;73.45
42247;BME280;27913;42.722;23.268;2024-01-30T02:57:05;96868.09;;;-0.91;73.14
42247;BME280;27913;42.722;23.268;2024-01-30T02:59:31;96989.47;;;-0.11;73.32
42247;BME280;27913;42.722;23.268;2024-01-30T03:01:58;96811.56;;;-1.17;73.54
42247;BME280;27913;42.722;23.268;2024-01-30T03:04:24;96995.81;;;0.01;72.95
42247;BME280;27913;42.722;23.268;2024-01-30T03:06:50;96789.72;;;-1.10;72.71
42247;BME280;27913;42.722;23.268;2024-01-30T03:09:16;96781.53;;;-1.19;72.22
42247;BME280;27913;42.722;23.268;2024-01-30T03:11:42;96481.41;;;-3.13;71.71
42247;BME280;27913;42.722;23.268;2024-01-30T03:14:08;96743.50;;;-1.54;72.29
42247;BME280;27913;42.722;23.268;2024-01-30T03:16:37;96422.41;;;-3.59;71.40
42247;BME280;27913;42.722;23.268;2024-01-30T03:19:04;96982.13;;;-0.20;72.10
42247;BME280;27913;42.722;23.268;2024-01-30T03:21:30;96670.16;;;-2.08;71.58
42247;BME280;27913;42.722;23.268;2024-01-30T03:23:56;96601.34;;;-2.46;71.85
42247;BME280;27913;42.722;23.268;2024-01-30T03:26:21;96782.72;;;-1.46;71.83
42247;BME280;27913;42.722;23.268;2024-01-30T03:28:47;96585.00;;;-2.66;71.36
42247;BME280;27913;42.722;23.268;2024-01-30T03:31:15;96904.41;;;-0.75;71.19
42247;BME280;27913;42.722;23.268;2024-01-30T03:33:41;96989.31;;;-0.27;71.35
42247;BME280;27913;42.722;23.268;2024-01-30T03:36:08;96966.97;;;-0.28;71.19
42247;BME280;27913;42.722;23.268;2024-01-30T03:38:34;96974.91;;;-0.33;71.17
42247;BME280;27913;42.722;23.268;2024-01-30T03:41:00;96870.19;;;-1.00;71.00
42247;BME280;27913;42.722;23.268;2024-01-30T03:43:26;96438.75;;;-3.60;71.14
42247;BME280;27913;42.722;23.268;2024-01-30T03:45:51;96821.47;;;-1.27;71.22
42247;BME280;27913;42.722;23.268;2024-01-30T03:48:17;96969.19;;;-0.40;70.98
42247;BME280;27913;42.722;23.268;2024-01-30T03:50:43;96359.13;;;-4.05;70.82
42247;BME280;27913;42.722;23.268;2024-01-30T03:53:09;96975.22;;;-0.39;71.16
42247;BME280;27913;42.722;23.268;2024-01-30T03:55:34;96844.97;;;-1.14;71.03
42247;BME280;27913;42.722;23.268;2024-01-30T03:58:00;96930.88;;;-0.51;70.52
42247;BME280;27913;42.722;23.268;2024-01-30T04:00:26;96965.41;;;-0.32;70.85
42247;BME280;27913;42.722;23.268;2024-01-30T04:02:52;96974.09;;;-0.33;70.67
42247;BME280;27913;42.722;23.268;2024-01-30T04:05:17;96731.84;;;-1.63;70.77
42247;BME280;27913;42.722;23.268;2024-01-30T04:07:43;96879.91;;;-0.86;70.80
42247;BME280;27913;42.722;23.268;2024-01-30T04:10:09;96435.91;;;-3.54;70.48
42247;BME280;27913;42.722;23.268;2024-01-30T04:12:36;96771.81;;;-1.53;70.83
42247;BME280;27913;42.722;23.268;2024-01-30T04:15:02;96796.34;;;-1.23;70.54
42247;BME280;27913;42.722;23.268;2024-01-30T04:17:28;96530.44;;;-2.95;70.71
42247;BME280;27913;42.722;23.268;2024-01-30T04:19:54;96976.78;;;-0.37;70.73
42247;BME280;27913;42.722;23.268;2024-01-30T04:22:20;96971.69;;;-0.38;71.02
42247;BME280;27913;42.722;23.268;2024-01-30T04:24:45;96762.63;;;-1.59;70.90
42247;BME280;27913;42.722;23.268;2024-01-30T04:27:11;96964.78;;;-0.38;71.12
42247;BME280;27913;42.722;23.268;2024-01-30T04:29:37;96785.06;;;-1.61;71.00
42247;BME280;27913;42.722;23.268;2024-01-30T04:32:02;96463.63;;;-3.40;71.22
42247;BME280;27913;42.722;23.268;2024-01-30T04:34:28;96971.69;;;-0.38;71.21
42247;BME280;27913;42.722;23.268;2024-01-30T04:36:54;96981.16;;;-0.37;71.01
42247;BME280;27913;42.722;23.268;2024-01-30T04:39:19;96530.66;;;-3.01;70.54
42247;BME280;27913;42.722;23.268;2024-01-30T04:41:45;96975.97;;;-0.37;70.91
42247;BME280;27913;42.722;23.268;2024-01-30T04:44:11;96972.41;;;-0.34;71.03
42247;BME280;27913;42.722;23.268;2024-01-30T04:46:36;96855.59;;;-1.20;70.55
42247;BME280;27913;42.722;23.268;2024-01-30T04:49:02;96855.09;;;-1.28;71.03
42247;BME280;27913;42.722;23.268;2024-01-30T04:51:28;96978.50;;;-0.55;71.57
42247;BME280;27913;42.722;23.268;2024-01-30T04:53:55;96516.88;;;-3.42;71.74
42247;BME280;27913;42.722;23.268;2024-01-30T04:56:20;96612.75;;;-2.94;71.99
42247;BME280;27913;42.722;23.268;2024-01-30T04:58:46;96868.41;;;-1.38;72.53
42247;BME280;27913;42.722;23.268;2024-01-30T05:01:18;97012.16;;;-0.56;72.84
42247;BME280;27913;42.722;23.268;2024-01-30T05:03:44;97002.50;;;-0.53;72.98
42247;BME280;27913;42.722;23.268;2024-01-30T05:06:09;96952.06;;;-0.81;72.95
42247;BME280;27913;42.722;23.268;2024-01-30T05:08:35;96449.19;;;-3.86;72.51
42247;BME280;27913;42.722;23.268;2024-01-30T05:11:05;96706.22;;;-2.48;72.78
42247;BME280;27913;42.722;23.268;2024-01-30T05:13:31;96885.56;;;-1.37;72.71
42247;BME280;27913;42.722;23.268;2024-01-30T05:15:57;96934.84;;;-1.01;72.83
42247;BME280;27913;42.722;23.268;2024-01-30T05:18:22;96885.56;;;-1.37;72.87
42247;BME280;27913;42.722;23.268;2024-01-30T05:20:50;96717.38;;;-2.48;72.37
42247;BME280;27913;42.722;23.268;2024-01-30T05:23:16;97009.13;;;-0.66;72.59
42247;BME280;27913;42.722;23.268;2024-01-30T05:25:43;97010.19;;;-0.70;72.46
42247;BME280;27913;42.722;23.268;2024-01-30T05:28:09;96731.06;;;-2.26;72.77
42247;BME280;27913;42.722;23.268;2024-01-30T05:30:34;96907.19;;;-1.39;72.58
42247;BME280;27913;42.722;23.268;2024-01-30T05:33:00;96445.63;;;-4.04;72.58
42247;BME280;27913;42.722;23.268;2024-01-30T05:35:26;96460.16;;;-4.03;72.48
42247;BME280;27913;42.722;23.268;2024-01-30T05:37:51;97010.44;;;-0.77;72.51
42247;BME280;27913;42.722;23.268;2024-01-30T05:40:17;96755.84;;;-2.22;72.55
42247;BME280;27913;42.722;23.268;2024-01-30T05:42:43;96763.38;;;-2.38;72.84
42247;BME280;27913;42.722;23.268;2024-01-30T05:45:08;96920.25;;;-1.42;73.04
42247;BME280;27913;42.722;23.268;2024-01-30T05:47:35;96503.31;;;-3.89;72.76
42247;BME280;27913;42.722;23.268;2024-01-30T05:50:00;96748.97;;;-2.65;73.11
42247;BME280;27913;42.722;23.268;2024-01-30T05:52:26;96605.16;;;-3.40;73.41
42247;BME280;27913;42.722;23.268;2024-01-30T05:54:51;96753.38;;;-2.46;73.62
42247;BME280;27913;42.722;23.268;2024-01-30T05:57:17;97010.25;;;-0.93;73.85
42247;BME280;27913;42.722;23.268;2024-01-30T05:59:44;96753.63;;;-2.32;73.70
42247;BME280;27913;42.722;23.268;2024-01-30T06:02:13;96810.63;;;-2.17;73.28
42247;BME280;27913;42.722;23.268;2024-01-30T06:04:39;96986.25;;;-1.16;73.56
42247;BME280;27913;42.722;23.268;2024-01-30T06:07:04;96789.34;;;-2.22;73.46
42247;BME280;27913;42.722;23.268;2024-01-30T06:09:31;96400.31;;;-4.74;73.14
42247;BME280;27913;42.722;23.268;2024-01-30T06:11:57;97016.78;;;-1.05;73.63
42247;BME280;27913;42.722;23.268;2024-01-30T06:14:23;97020.53;;;-1.12;73.75
42247;BME280;27913;42.722;23.268;2024-01-30T06:16:49;97012.34;;;-1.22;73.39
42247;BME280;27913;42.722;23.268;2024-01-30T06:19:15;97020.59;;;-1.14;73.70
42247;BME280;27913;42.722;23.268;2024-01-30T06:21:41;96762.13;;;-2.50;73.14
42247;BME280;27913;42.722;23.268;2024-01-30T06:24:06;96463.78;;;-4.31;72.37
42247;BME280;27913;42.722;23.268;2024-01-30T06:26:32;97011.47;;;-1.02;73.05
42247;BME280;27913;42.722;23.268;2024-01-30T06:28:58;96411.50;;;-4.75;72.78
42247;BME280;27913;42.722;23.268;2024-01-30T06:31:24;97009.63;;;-0.98;72.79
42247;BME280;27913;42.722;23.268;2024-01-30T06:33:49;96788.56;;;-2.24;72.68
42247;BME280;27913;42.722;23.268;2024-01-30T06:36:15;96988.19;;;-1.00;73.23
42247;BME280;27913;42.722;23.268;2024-01-30T06:38:41;96557.94;;;-3.61;72.14
42247;BME280;27913;42.722;23.268;2024-01-30T06:41:07;97013.16;;;-0.80;71.71
42247;BME280;27913;42.722;23.268;2024-01-30T06:43:32;96993.28;;;-0.78;71.67
42247;BME280;27913;42.722;23.268;2024-01-30T06:45:58;97007.53;;;-0.69;71.59
42247;BME280;27913;42.722;23.268;2024-01-30T06:48:25;96586.09;;;-3.13;70.85
42247;BME280;27913;42.722;23.268;2024-01-30T06:50:53;97008.72;;;-0.57;70.62
42247;BME280;27913;42.722;23.268;2024-01-30T06:53:19;96773.28;;;-1.87;70.17
42247;BME280;27913;42.722;23.268;2024-01-30T06:55:45;96557.25;;;-3.22;69.65
42247;BME280;27913;42.722;23.268;2024-01-30T06:58:11;97015.50;;;-0.35;69.91
42247;BME280;27913;42.722;23.268;2024-01-30T07:00:37;97032.38;;;-0.26;69.68
42247;BME280;27913;42.722;23.268;2024-01-30T07:03:05;96801.69;;;-1.47;69.25
42247;BME280;27913;42.722;23.268;2024-01-30T07:05:32;96818.88;;;-1.27;69.20
42247;BME280;27913;42.722;23.268;2024-01-30T07:07:58;96705.34;;;-2.07;68.85
42247;BME280;27913;42.722;23.268;2024-01-30T07:10:23;96473.06;;;-3.41;68.07
42247;BME280;27913;42.722;23.268;2024-01-30T07:12:49;97034.53;;;0.03;68.50
42247;BME280;27913;42.722;23.268;2024-01-30T07:15:15;97022.91;;;0.11;68.25
42247;BME280;27913;42.722;23.268;2024-01-30T07:17:44;96553.81;;;-2.60;67.05
42247;BME280;27913;42.722;23.268;2024-01-30T07:20:11;96411.75;;;-3.50;66.15
42247;BME280;27913;42.722;23.268;2024-01-30T07:22:37;97015.31;;;0.08;65.90
42247;BME280;27913;42.722;23.268;2024-01-30T07:25:02;97019.16;;;-0.01;65.81
42247;BME280;27913;42.722;23.268;2024-01-30T07:27:28;96814.19;;;-1.38;66.29
42247;BME280;27913;42.722;23.268;2024-01-30T07:29:54;96729.69;;;-1.73;66.34
42247;BME280;27913;42.722;23.268;2024-01-30T07:32:19;96813.03;;;-1.30;66.17
42247;BME280;27913;42.722;23.268;2024-01-30T07:34:45;97026.16;;;-0.03;64.77
42247;BME280;27913;42.722;23.268;2024-01-30T07:37:10;97032.66;;;0.06;65.61
42247;BME280;27913;42.722;23.268;2024-01-30T07:39:38;97037.75;;;0.08;65.62
42247;BME280;27913;42.722;23.268;2024-01-30T07:42:04;97023.00;;;0.10;65.27
42247;BME280;27913;42.722;23.268;2024-01-30T07:44:31;97017.44;;;0.18;65.13
42247;BME280;27913;42.722;23.268;2024-01-30T07:46:56;96621.50;;;-2.16;64.47
42247;BME280;27913;42.722;23.268;2024-01-30T07:49:22;97023.63;;;0.15;63.94
42247;BME280;27913;42.722;23.268;2024-01-30T07:51:48;96894.59;;;-0.67;64.73
42247;BME280;27913;42.722;23.268;2024-01-30T07:54:13;97024.13;;;0.04;64.48
42247;BME280;27913;42.722;23.268;2024-01-30T07:56:39;97015.56;;;0.02;64.53
42247;BME280;27913;42.722;23.268;2024-01-30T07:59:04;96441.38;;;-3.62;64.70
42247;BME280;27913;42.722;23.268;2024-01-30T08:01:30;97029.03;;;-0.09;65.36
42247;BME280;27913;42.722;23.268;2024-01-30T08:03:55;96903.94;;;-0.83;65.86
42247;BME280;27913;42.722;23.268;2024-01-30T08:06:21;97019.34;;;0.14;66.09
42247;BME280;27913;42.722;23.268;2024-01-30T08:08:46;96374.44;;;-3.60;64.70
42247;BME280;27913;42.722;23.268;2024-01-30T08:11:12;97006.47;;;0.13;65.09
42247;BME280;27913;42.722;23.268;2024-01-30T08:13:38;96968.59;;;0.11;65.03
42247;BME280;27913;42.722;23.268;2024-01-30T08:16:03;96588.97;;;-2.19;64.92
42247;BME280;27913;42.722;23.268;2024-01-30T08:18:29;96949.72;;;-0.10;65.01
42247;BME280;27913;42.722;23.268;2024-01-30T08:20:55;97016.22;;;0.44;65.39
42247;BME280;27913;42.722;23.268;2024-01-30T08:23:21;96754.81;;;-0.99;65.04
42247;BME280;27913;42.722;23.268;2024-01-30T08:25:46;96565.78;;;-2.19;64.70
42247;BME280;27913;42.722;23.268;2024-01-30T08:28:12;96924.22;;;0.02;65.03
42247;BME280;27913;42.722;23.268;2024-01-30T08:30:37;97037.19;;;0.75;64.82
42247;BME280;27913;42.722;23.268;2024-01-30T08:33:05;96670.88;;;-1.27;64.31
42247;BME280;27913;42.722;23.268;2024-01-30T08:35:30;97032.75;;;0.95;64.45
42247;BME280;27913;42.722;23.268;2024-01-30T08:37:59;96671.31;;;-1.00;63.92
42247;BME280;27913;42.722;23.268;2024-01-30T08:40:24;96976.84;;;0.91;63.31
42247;BME280;27913;42.722;23.268;2024-01-30T08:42:50;97035.44;;;1.11;63.66
42247;BME280;27913;42.722;23.268;2024-01-30T08:45:16;96572.69;;;-1.63;63.11
42247;BME280;27913;42.722;23.268;2024-01-30T08:47:42;96924.91;;;0.58;63.59
42247;BME280;27913;42.722;23.268;2024-01-30T08:50:08;96572.28;;;-1.53;63.33
42247;BME280;27913;42.722;23.268;2024-01-30T08:52:33;96571.03;;;-1.64;62.44
42247;BME280;27913;42.722;23.268;2024-01-30T08:55:01;96844.38;;;0.11;62.55
42247;BME280;27913;42.722;23.268;2024-01-30T08:57:27;97048.09;;;1.17;62.80
42247;BME280;27913;42.722;23.268;2024-01-30T08:59:55;96464.63;;;-2.43;62.96
42247;BME280;27913;42.722;23.268;2024-01-30T09:02:21;97042.47;;;0.91;63.80
42247;BME280;27913;42.722;23.268;2024-01-30T09:04:47;97054.41;;;0.94;63.80
42247;BME280;27913;42.722;23.268;2024-01-30T09:07:14;96697.63;;;-1.28;64.14
42247;BME280;27913;42.722;23.268;2024-01-30T09:09:40;97061.56;;;0.89;64.64
42247;BME280;27913;42.722;23.268;2024-01-30T09:12:07;96499.16;;;-2.47;64.69
42247;BME280;27913;42.722;23.268;2024-01-30T09:14:35;96705.50;;;-0.94;64.65
42247;BME280;27913;42.722;23.268;2024-01-30T09:17:01;97056.69;;;1.18;64.11
42247;BME280;27913;42.722;23.268;2024-01-30T09:19:28;97043.03;;;1.32;63.99
42247;BME280;27913;42.722;23.268;2024-01-30T09:21:53;97030.78;;;1.52;63.54
42247;BME280;27913;42.722;23.268;2024-01-30T09:24:19;96794.16;;;0.16;62.50
42247;BME280;27913;42.722;23.268;2024-01-30T09:26:45;97059.22;;;1.53;62.94
42247;BME280;27913;42.722;23.268;2024-01-30T09:29:10;96811.47;;;0.31;62.64
42247;BME280;27913;42.722;23.268;2024-01-30T09:31:36;96833.25;;;0.79;62.28
42247;BME280;27913;42.722;23.268;2024-01-30T09:34:02;96916.50;;;1.23;60.86
42247;BME280;27913;42.722;23.268;2024-01-30T09:36:27;96597.16;;;-0.62;60.63
42247;BME280;27913;42.722;23.268;2024-01-30T09:38:53;96783.91;;;0.64;60.17
42247;BME280;27913;42.722;23.268;2024-01-30T09:41:19;96492.28;;;-1.36;59.42
42247;BME280;27913;42.722;23.268;2024-01-30T09:43:48;96812.00;;;0.38;60.17
42247;BME280;27913;42.722;23.268;2024-01-30T09:46:15;96783.66;;;0.01;60.90
42247;BME280;27913;42.722;23.268;2024-01-30T09:48:42;96582.28;;;-1.47;61.57
42247;BME280;27913;42.722;23.268;2024-01-30T09:51:09;96724.75;;;-0.65;62.09
42247;BME280;27913;42.722;23.268;2024-01-30T09:53:38;97006.09;;;1.11;61.78
42247;BME280;27913;42.722;23.268;2024-01-30T09:56:05;96555.13;;;-1.74;61.84
42247;BME280;27913;42.722;23.268;2024-01-30T09:58:31;96897.97;;;0.27;61.64
42247;BME280;27913;42.722;23.268;2024-01-30T10:00:56;97028.81;;;0.88;61.88
42247;BME280;27913;42.722;23.268;2024-01-30T10:03:22;96804.84;;;-0.45;62.47
42247;BME280;27913;42.722;23.268;2024-01-30T10:05:51;96461.19;;;-2.82;62.20
42247;BME280;27913;42.722;23.268;2024-01-30T10:08:23;96367.59;;;-3.41;63.36
42247;BME280;27913;42.722;23.268;2024-01-30T10:10:49;96538.59;;;-2.26;63.56
42247;BME280;27913;42.722;23.268;2024-01-30T10:13:18;96863.06;;;-0.19;63.83
42247;BME280;27913;42.722;23.268;2024-01-30T10:15:44;96965.88;;;0.32;62.80
42247;BME280;27913;42.722;23.268;2024-01-30T10:18:10;96500.28;;;-2.34;62.73
42247;BME280;27913;42.722;23.268;2024-01-30T10:20:37;96984.53;;;0.75;63.55
42247;BME280;27913;42.722;23.268;2024-01-30T10:23:02;96889.41;;;0.07;63.43
42247;BME280;27913;42.722;23.268;2024-01-30T10:25:29;97003.44;;;0.94;63.57
42247;BME280;27913;42.722;23.268;2024-01-30T10:27:56;97015.78;;;1.07;62.76
42247;BME280;27913;42.722;23.268;2024-01-30T10:30:22;97004.84;;;1.18;62.56
42247;BME280;27913;42.722;23.268;2024-01-30T10:32:48;97003.19;;;1.17;61.80
42247;BME280;27913;42.722;23.268;2024-01-30T10:35:15;96974.84;;;1.14;61.80
42247;BME280;27913;42.722;23.268;2024-01-30T10:37:43;96945.06;;;0.87;61.76
42247;BME280;27913;42.722;23.268;2024-01-30T10:40:13;96441.44;;;-2.06;61.30
42247;BME280;27913;42.722;23.268;2024-01-30T10:42:42;96805.84;;;0.23;61.17
42247;BME280;27913;42.722;23.268;2024-01-30T10:45:10;96999.50;;;1.39;60.20
42247;BME280;27913;42.722;23.268;2024-01-30T10:47:50;96987.59;;;1.35;60.55
42247;BME280;27913;42.722;23.268;2024-01-30T10:50:16;96973.56;;;1.39;61.07
42247;BME280;27913;42.722;23.268;2024-01-30T10:52:42;96544.28;;;-1.08;60.94
42247;BME280;27913;42.722;23.268;2024-01-30T10:55:09;96977.94;;;1.54;61.06
42247;BME280;27913;42.722;23.268;2024-01-30T10:57:35;96770.41;;;0.41;60.51
42247;BME280;27913;42.722;23.268;2024-01-30T11:00:06;96540.50;;;-1.18;60.38
42247;BME280;27913;42.722;23.268;2024-01-30T11:02:42;96979.25;;;1.46;60.60
42247;BME280;27913;42.722;23.268;2024-01-30T11:05:08;96420.19;;;-1.74;61.29
42247;BME280;27913;42.722;23.268;2024-01-30T11:07:34;96696.63;;;-0.18;60.83
42247;BME280;27913;42.722;23.268;2024-01-30T11:10:02;96961.34;;;1.57;60.68
42247;BME280;27913;42.722;23.268;2024-01-30T11:12:32;96963.47;;;1.66;61.34
42247;BME280;27913;42.722;23.268;2024-01-30T11:15:08;96813.06;;;1.02;61.12
42247;BME280;27913;42.722;23.268;2024-01-30T11:20:16;96880.94;;;1.41;60.66
42247;BME280;27913;42.722;23.268;2024-01-30T11:22:47;96860.69;;;1.15;60.55
42247;BME280;27913;42.722;23.268;2024-01-30T11:25:14;96763.44;;;0.59;60.69
42247;BME280;27913;42.722;23.268;2024-01-30T11:27:42;96526.75;;;-1.01;60.88
42247;BME280;27913;42.722;23.268;2024-01-30T11:30:08;96412.50;;;-1.58;61.58
42247;BME280;27913;42.722;23.268;2024-01-30T11:32:34;96895.91;;;1.36;62.03
42247;BME280;27913;42.722;23.268;2024-01-30T11:35:00;96640.63;;;-0.19;61.58
42247;BME280;27913;42.722;23.268;2024-01-30T11:37:28;96480.66;;;-1.27;62.78
42247;BME280;27913;42.722;23.268;2024-01-30T11:39:56;96954.91;;;1.64;62.47
42247;BME280;27913;42.722;23.268;2024-01-30T11:42:23;96924.88;;;1.76;61.87
42247;BME280;27913;42.722;23.268;2024-01-30T11:44:50;96870.25;;;1.47;61.55
42247;BME280;27913;42.722;23.268;2024-01-30T11:47:16;96948.63;;;1.85;61.12
42247;BME280;27913;42.722;23.268;2024-01-30T11:49:43;96948.72;;;1.83;61.30
42247;BME280;27913;42.722;23.268;2024-01-30T11:52:09;96929.56;;;1.86;61.67
42247;BME280;27913;42.722;23.268;2024-01-30T11:54:35;96923.78;;;1.80;61.25
42247;BME280;27913;42.722;23.268;2024-01-30T11:57:01;96935.91;;;1.80;61.63
42247;BME280;27913;42.722;23.268;2024-01-30T11:59:26;96855.38;;;1.51;61.53
42247;BME280;27913;42.722;23.268;2024-01-30T12:01:52;96337.06;;;-1.63;61.19
42247;BME280;27913;42.722;23.268;2024-01-30T12:04:18;96922.59;;;2.02;61.49
42247;BME280;27913;42.722;23.268;2024-01-30T12:06:44;96702.53;;;0.84;61.20
42247;BME280;27913;42.722;23.268;2024-01-30T12:09:09;96722.84;;;0.92;60.78
42247;BME280;27913;42.722;23.268;2024-01-30T12:11:47;96729.09;;;1.04;60.87
42247;BME280;27913;42.722;23.268;2024-01-30T12:14:16;96705.88;;;1.03;60.41
42247;BME280;27913;42.722;23.268;2024-01-30T12:16:42;96508.03;;;-0.39;59.94
42247;BME280;27913;42.722;23.268;2024-01-30T12:19:24;96903.25;;;2.08;59.98
42247;BME280;27913;42.722;23.268;2024-01-30T12:21:55;96907.25;;;2.14;60.06
42247;BME280;27913;42.722;23.268;2024-01-30T12:24:21;96515.75;;;-0.05;59.71
42247;BME280;27913;42.722;23.268;2024-01-30T12:26:47;96399.88;;;-0.79;59.23
42247;BME280;27913;42.722;23.268;2024-01-30T12:29:14;96884.94;;;2.26;59.42
42247;BME280;27913;42.722;23.268;2024-01-30T12:31:42;96635.53;;;0.62;59.70
42247;BME280;27913;42.722;23.268;2024-01-30T12:34:09;96891.88;;;2.25;59.83
42247;BME280;27913;42.722;23.268;2024-01-30T12:36:34;96889.19;;;2.27;59.60
42247;BME280;27913;42.722;23.268;2024-01-30T12:39:05;96458.78;;;-0.35;59.86
42247;BME280;27913;42.722;23.268;2024-01-30T12:41:30;96755.41;;;1.45;60.34
42247;BME280;27913;42.722;23.268;2024-01-30T12:43:57;96894.97;;;2.32;60.44
42247;BME280;27913;42.722;23.268;2024-01-30T12:46:30;96867.72;;;2.39;59.76
42247;BME280;27913;42.722;23.268;2024-01-30T12:48:55;96416.34;;;-0.47;59.24
42247;BME280;27913;42.722;23.268;2024-01-30T12:51:21;96899.22;;;2.64;58.89
42247;BME280;27913;42.722;23.268;2024-01-30T12:53:46;96469.66;;;0.18;58.24